Aviation Digital Data Service (ADDS)

Output produced by METARs form (1201 UTC 24 February 2018)
found at http://www.aviationweather.gov/adds/metars/
 
UNAA 241130Z 34002MPS CAVOK M07/M11 Q1017 R02/090065 NOSIG RMK QFE740
TAF UNAA 241100Z 2412/2512 35003MPS 5000 -SHSN FU SCT015CB 
     TEMPO 2412/2502 2100 -SHSN FU 
     BECMG 2502/2503 3200 BR FU FEW008
       
URWA 241130Z 09003MPS 1600 1200NW R09/1700 BR OVC003 00/00 Q1014 R09/390037 NOSIG RMK OBST OBSC QFE762/1016
TAF URWA 241100Z 2412/2421 08003G08MPS 1000 BR OVC003 
     TEMPO 2412/2418 0300 -FZDZ FZFG OVC002
       
USCC 241130Z 26005MPS 9999 FEW040 M10/M18 Q1021 R27/000060 NOSIG RMK QFE746
TAF USCC 241100Z 2412/2512 25005MPS CAVOK 
     TEMPO 2415/2503 21003MPS 3100 BR FU
       
UNBB 241130Z 24003MPS 9000 -SN SCT005 M10/M12 Q1019 R24/490334 NOSIG RMK QBB170 QFE742
TAF UNBB 241100Z 2412/2512 26003G08MPS 9999 SCT011 
     TEMPO 2412/2415 1200 SN BR SCT003 BKN005 BKN011 
     TEMPO 2415/2506 0300 FZFG FU SCT002 BKN005
       
UWKE 241130Z 23005MPS CAVOK M12/M17 Q1022 R21/420550 NOSIG RMK QFE750/1000
TAF UWKE 241045Z 2412/2512 24003G09MPS 9999 SCT020 
     TEMPO 2412/2415 3100 -SN BR BKN011 
     TEMPO 2415/2509 VRB01MPS 3100 BR BKN011
       
UUOB 241130Z 04004MPS CAVOK M11/M15 Q1020 R11/090060 NOSIG
TAF UUOB 241100Z 2412/2421 06006MPS 9999 BKN011
       
URMO 241130Z 31003MPS 280V340 9999 BKN023 09/02 Q1009 R09/010070 NOSIG RMK QFE714/0952
TAF URMO 241100Z 2412/2421 30003G08MPS 9999 BKN015
       
TAF ULPB 241057Z 2412/2421 35004MPS 6000 BKN011 BKN020 
     TEMPO 2412/2421 01004G09MPS 3100 -SHSN BR BKN011CB
       
USPP 241130Z 30005MPS 9000 SCT017 M15/M21 Q1021 R21/490255 NOSIG RMK QFE755
TAF USPP 241100Z 2412/2512 28003MPS CAVOK 
     TEMPO 2412/2415 3100 -SN BR SCT011 OVC100 
     BECMG 2415/2417 6000 BKN020
       
UIBB 241130Z 10001MPS 7000 -SHSN SCT021CB M12/M13 Q1016 R30/490240 NOSIG RMK QFE719/0959
TAF UIBB 241100Z 2412/2512 12003MPS 6000 -SHSN BKN012CB 
     TEMPO 2412/2503 1300 SHSN VV008
       
UUBP 241100Z 08003MPS CAVOK M09/M15 Q1022 R34/490245 NOSIG RMK QFE749/0999
TAF UUBP 241056Z 2412/2421 06003MPS 9999 SCT020 
     TEMPO 2415/2421 -SN BKN011
       
UWKS 241130Z 28004MPS 9999 SCT020 M11/M17 Q1023 R24/420350 NOSIG RMK QFE753
TAF UWKS 241058Z 2412/2421 32003MPS 6000 BKN015
       
UUOO 241130Z 03002MPS 9000 SCT020 M10/M16 Q1022 R30/190050 NOSIG RMK QFE753
TAF UUOO 241100Z 2412/2421 06003MPS 9999 SCT015
       
UEEE 241130Z 01002MPS CAVOK M32/M36 Q1032 R23L/490150 NOSIG RMK QFE765
TAF UEEE 241100Z 2412/2518 VRB01MPS CAVOK 
     FM241800 VRB01MPS 3200 BR NSC 
     TEMPO 2420/2502 0300 FG VV003
       
UUDD 241130Z 05003MPS 9999 SCT019 M10/M16 Q1025 R88/190095 NOSIG
TAF UUDD 241057Z 2412/2518 02003MPS 8000 SCT020 TXM09/2412Z TNM20/2504Z 
     TEMPO 2412/2417 -SHSN BKN015CB 
     BECMG 2417/2418 3100 -SN BR 
     PROB40 
     TEMPO 2418/2506 0300 FZFG FEW002
       
URWW 241130Z 07010MPS 3200 -SN BLSN OVC006 M11/M13 Q1016 R06/450240 TEMPO 1000 SHSN BLSN BKN004 BKN020CB RMK OBST OBSC
TAF URWW 241058Z 2412/2421 05008G13MPS 3100 -SHSN BLSN BKN011 BKN020CB 
     TEMPO 2412/2421 08010G15MPS 1000 SHSN BLSN BKN004 BKN020CB
       
UHBB 241100Z 20003MPS CAVOK M18/M25 Q1027 R36/090060 NOSIG RMK QFE752/1003
TAF UHBB 241045Z 2412/2512 35003MPS CAVOK
       
UIII 241130Z 15005MPS CAVOK M10/M15 Q1017 R12/CLRD60 NOSIG RMK QFE720/0960
TAF UIII 241100Z 2412/2512 17005MPS 9999 NSC 
     BECMG 2500/2502 30005MPS BKN011CB 
     BECMG 2505/2506 2500 -SHSN 
     TEMPO 2506/2512 32010MPS 0500 +SHSN BLSN VV002
       
UIAA 241130Z 32002MPS 9999 NSC M18/M22 Q1018 R29/810165 NOSIG RMK QFE705/0940
TAF UIAA 241100Z 2412/2512 04003MPS 3100 BR FU SCT005 
     BECMG 2502/2504 2500 -SHSN BR BKN014CB
       
UWKD 241130Z 28003MPS 9999 BKN029 M10/M15 Q1023 R29/810050 NOSIG RMK QFE756/1008
TAF UWKD 241054Z 2412/2512 VRB01MPS 3100 BR BKN015 TXM10/2412Z TNM24/2504Z 
     BECMG 2414/2415 2000 BR SCT010 
     TEMPO 2415/2422 0500 FZFG BKN002 
     TEMPO 2422/2506 0300 FZFG VV001
       
UNEE 241130Z 00000MPS CAVOK M11/M15 Q1018 R23/891040 NOSIG RMK QFE741
TAF UNEE 241100Z 2412/2512 22003MPS 9999 SCT020 
     TEMPO 2415/2505 0300 FZFG
       
USCC 241130Z 26005MPS 9999 FEW040 M10/M18 Q1021 R27/000060 NOSIG RMK QFE746
TAF USCC 241100Z 2412/2512 25005MPS CAVOK 
     TEMPO 2415/2503 21003MPS 3100 BR FU
       
USCM 241130Z 15004MPS 9999 NSC M13/M18 Q1021 R18/090060 NOSIG RMK QFE728
TAF USCM 241100Z 2412/2421 15003MPS 9999 SCT020 
     TEMPO 2415/2421 26001MPS 3100 BR SCT011
       
USHH 241130Z 25002MPS 9000 -SN SCT033 M24/M28 Q1018 R24/420350 TEMPO 3000 -SN BKN007 RMK QFE760
TAF USHH 241057Z 2412/2512 27003MPS 9999 SCT020 
     TEMPO 2412/2415 4000 BR BKN011 
     TEMPO 2415/2424 3100 -SN BR SCT003 BKN011 
     TEMPO 2500/2506 1200 BR BKN003 OVC011
       
USNN 241130Z VRB01MPS CAVOK M21/M23 Q1018 R21/450163 NOSIG RMK QFE759
TAF USNN 241100Z 2412/2512 28003MPS 9999 SCT020
       
USPP 241130Z 30005MPS 9000 SCT017 M15/M21 Q1021 R21/490255 NOSIG RMK QFE755
TAF USPP 241100Z 2412/2512 28003MPS CAVOK 
     TEMPO 2412/2415 3100 -SN BR SCT011 OVC100 
     BECMG 2415/2417 6000 BKN020
       
USRR 241130Z 05002MPS 7000 SCT016 M22/M26 Q1018 R25/35//38 NOSIG RMK QFE758
TAF USRR 241055Z 2412/2512 30003MPS 9999 SCT007 
     TEMPO 2412/2415 3100 BR BKN005 
     TEMPO 2415/2503 1000 BR BKN003
       
USSS 241130Z 23007MPS 9999 SCT033CB M11/M19 Q1019 R26R/420140 TEMPO 25008MPS RMK QFE744/0992
TAF USSS 241053Z 2412/2512 24005MPS 9999 BKN015 SCT020CB 
     TEMPO 2412/2421 3100 -SN BR BKN011
       
USTR 241130Z 25004MPS 9999 SCT023 M13/M18 Q1020 R21/CLRD65 NOSIG RMK QFE756/1008
TAF USTR 241059Z 2412/2512 23004MPS 9999 SCT020 
     TEMPO 2415/2505 5000 BR HZ
       
UHSS 241130Z 31007MPS 9999 SCT040CB M09/M15 Q1016 R01/810360 NOSIG RMK QFE760/1014
TAF UHSS 241100Z 2412/2518 32006G11MPS 9999 BKN030CB OVC100 
     TEMPO 2412/2518 1400 SHSN BLSN BKN015CB 
     BECMG 2510/2513 36003MPS
       
UMKK 241130Z 02005MPS 9999 FEW020 M09/M14 Q1032 R06/82//48 NOSIG RMK QFE773/1031
TAF UMKK 241100Z 2412/2512 03006G11MPS 9999 SCT020 
     TEMPO 2500/2507 07003G08MPS 
     BECMG 2507/2509 04005G10MPS BKN020
       
UHWW 241130Z 00000MPS 9999 NSC M11/M21 Q1031 R25L/0///70 NOSIG RMK QFE772
TAF UHWW 241100Z 2412/2512 01003MPS 9999 NSC 
     FM250000 15003MPS 9999 SCT030
       
USSS 241130Z 23007MPS 9999 SCT033CB M11/M19 Q1019 R26R/420140 TEMPO 25008MPS RMK QFE744/0992
TAF USSS 241053Z 2412/2512 24005MPS 9999 BKN015 SCT020CB 
     TEMPO 2412/2421 3100 -SN BR BKN011
       
UNKL 241130Z 00000MPS CAVOK M13/M18 Q1018 R29/410160 NOSIG RMK QFE738
TAF UNKL 241056Z 2412/2512 25003MPS 5000 BR NSC 
     TEMPO 2412/2419 3100 BR SCT011 
     TEMPO 2419/2501 1500 BR FEW003 
     FM250100 26003G10MPS 9999 SCT020CB 
     TEMPO 2501/2512 3100 -SHSN BKN013CB
       
UWWW 241130Z 13002MPS CAVOK M15/M20 Q1024 R15/420245 NOSIG RMK QFE756/1009
TAF UWWW 241100Z 2412/2512 VRB01MPS 9999 SCT100 TXM15/2412Z TNM25/2503Z 
     FM241800 02003MPS 3100 BR SCT020 
     TEMPO 2418/2506 VRB01MPS 0300 FZFG VV002 
     FM250600 03005G10MPS 3100 -SN BR BKN011 OVC100
       
USCM 241130Z 15004MPS 9999 NSC M13/M18 Q1021 R18/090060 NOSIG RMK QFE728
TAF USCM 241100Z 2412/2421 15003MPS 9999 SCT020 
     TEMPO 2415/2421 26001MPS 3100 BR SCT011
       
URMM 241130Z 07004MPS 9999 BKN017 08/04 Q1010 R12/090070 NOSIG RMK MT OBSC QFE729/0973
TAF URMM 241058Z 2412/2512 10003G08MPS 5000 BR BKN011 TX08/2412Z TN00/2503Z 
     TEMPO 2413/2509 3100 BR OVC004 
     TEMPO 2509/2512 3100 -DZ
       
USCC 241130Z 26005MPS 9999 FEW040 M10/M18 Q1021 R27/000060 NOSIG RMK QFE746
TAF USCC 241100Z 2412/2512 25005MPS CAVOK 
     TEMPO 2415/2503 21003MPS 3100 BR FU
       
USCM 241130Z 15004MPS 9999 NSC M13/M18 Q1021 R18/090060 NOSIG RMK QFE728
TAF USCM 241100Z 2412/2421 15003MPS 9999 SCT020 
     TEMPO 2415/2421 26001MPS 3100 BR SCT011
       
USHH 241130Z 25002MPS 9000 -SN SCT033 M24/M28 Q1018 R24/420350 TEMPO 3000 -SN BKN007 RMK QFE760
TAF USHH 241057Z 2412/2512 27003MPS 9999 SCT020 
     TEMPO 2412/2415 4000 BR BKN011 
     TEMPO 2415/2424 3100 -SN BR SCT003 BKN011 
     TEMPO 2500/2506 1200 BR BKN003 OVC011
       
USNN 241130Z VRB01MPS CAVOK M21/M23 Q1018 R21/450163 NOSIG RMK QFE759
TAF USNN 241100Z 2412/2512 28003MPS 9999 SCT020
       
USPP 241130Z 30005MPS 9000 SCT017 M15/M21 Q1021 R21/490255 NOSIG RMK QFE755
TAF USPP 241100Z 2412/2512 28003MPS CAVOK 
     TEMPO 2412/2415 3100 -SN BR SCT011 OVC100 
     BECMG 2415/2417 6000 BKN020
       
USRR 241130Z 05002MPS 7000 SCT016 M22/M26 Q1018 R25/35//38 NOSIG RMK QFE758
TAF USRR 241055Z 2412/2512 30003MPS 9999 SCT007 
     TEMPO 2412/2415 3100 BR BKN005 
     TEMPO 2415/2503 1000 BR BKN003
       
USSS 241130Z 23007MPS 9999 SCT033CB M11/M19 Q1019 R26R/420140 TEMPO 25008MPS RMK QFE744/0992
TAF USSS 241053Z 2412/2512 24005MPS 9999 BKN015 SCT020CB 
     TEMPO 2412/2421 3100 -SN BR BKN011
       
USTR 241130Z 25004MPS 9999 SCT023 M13/M18 Q1020 R21/CLRD65 NOSIG RMK QFE756/1008
TAF USTR 241059Z 2412/2512 23004MPS 9999 SCT020 
     TEMPO 2415/2505 5000 BR HZ
       
UIUU 241130Z VRB01MPS 9999 NSC M18/M22 Q1020 R26/821550 NOSIG RMK QFE720/0961
TAF UIUU 241100Z 2412/2512 26003MPS 9999 NSC 
     TEMPO 2415/2506 3100 BR FU
       
ULMM 241130Z 35002MPS 9999 SCT018CB M14/M17 Q1044 R31/490152 NOSIG RMK QFE775
TAF ULMM 241056Z 2412/2512 01003MPS 9999 BKN011 
     TEMPO 2412/2512 VRB01MPS 3100 -SHSN BKN011CB
       
URMN 241130Z 07002MPS 9999 BKN023 08/03 Q1009 R24/110060 NOSIG RMK QFE720
TAF URMN 241100Z 2412/2421 06003G08MPS 9999 BKN011 BKN020 
     FM241500 02003MPS 3100 BR OVC011 
     TEMPO 2415/2421 0700 -DZ FG OVC002
       
USNN 241130Z VRB01MPS CAVOK M21/M23 Q1018 R21/450163 NOSIG RMK QFE759
TAF USNN 241100Z 2412/2512 28003MPS 9999 SCT020
       
UHHH 241130Z 23004MPS CAVOK M17/M24 Q1025 R23L/090060 NOSIG RMK QFE762/1017
TAF UHHH 241046Z 2412/2518 24003MPS 9999 NSC 
     TEMPO 2418/2424 2000 BR FU SCT006
       
UWOO 241130Z 09002MPS 060V120 CAVOK M11/M16 Q1024 R26/820257 NOSIG RMK QFE758/1010
TAF UWOO 241052Z 2412/2512 10003MPS 9999 BKN015 TXM10/2412Z TNM15/2503Z 
     FM241500 07005MPS 3100 -SHSN BR BKN011 SCT015CB 
     TEMPO 2416/2512 09005MPS 0500 +SHSN VV002
       
UWOR 241100Z VRB01MPS CAVOK M16/M21 Q1023 R25/450250 NOSIG RMK QFE744/0992
TAF UWOR 241100Z 2412/2421 11003MPS 9999 BKN011 
     TEMPO 2412/2415 3100 -SN BR BKN007 
     FM241600 10004MPS 3100 -SHSN BR BKN008 BKN015CB 
     TEMPO 2416/2421 12005MPS 0500 +SHSN VV002
       
URKK 241130Z 06004MPS 3000 -FZDZ BR OVC003 M02/M02 Q1013 R23L/290060 TEMPO 0800 -FZDZ FZFG OVC002 RMK QBB110 OBST OBSC QFE756
TAF URKK 241056Z 2412/2512 03003G08MPS 4000 BR BKN004 BKN020 
     TEMPO 2412/2424 2000 FZDZ BKN003 BKN015 
     FM250000 04003G08MPS 3000 BR BKN020CB 
     TEMPO 2500/2509 2000 SHSN BKN007 BKN020CB
       
ULOO 241130Z 30002MPS 250V350 P5000 SCT015 M13/M16 Q1032 R19/490439 NOSIG RMK QFE770
TAF ULOO 241059Z 2412/2421 31003MPS 4000 -SN BR SCT011 BKN017 
     TEMPO 2412/2418 01003G08MPS 3100 -SHSN BR BKN011CB 
     TEMPO 2418/2421 1200 -SN BR BKN004 BKN011
       
ULLI 241130Z 31003MPS 9999 SCT016 M13/M17 Q1034 R88/420545 NOSIG
TAF ULLI 241056Z 2412/2512 01003G08MPS 6000 SCT011 
     BECMG 2418/2420 3100 BR 
     TEMPO 2418/2507 VRB01MPS 1200 -SN BR BKN004 BKN017 
     BECMG 2507/2509 6000 NSW 
     TEMPO 2507/2512 1500 -SN BR BKN004
       
USTR 241130Z 25004MPS 9999 SCT023 M13/M18 Q1020 R21/CLRD65 NOSIG RMK QFE756/1008
TAF USTR 241059Z 2412/2512 23004MPS 9999 SCT020 
     TEMPO 2415/2505 5000 BR HZ
       
UUEE 241130Z 02002MPS 320V040 9999 -SN BKN021 M10/M14 Q1025 R06R/410345 NOSIG
TAF UUEE 241050Z 2412/2512 02003MPS 9000 BKN015 TXM10/2412Z TNM20/2503Z 
     TEMPO 2412/2420 -SN 
     TEMPO 2420/2506 3100 -SN BR BKN008
       
URMT 241130Z 05001MPS 5000 BR BKN004 02/01 Q1010 R07/190060 NOSIG RMK QFE718
TAF URMT 241100Z 2412/2421 07003G08MPS 3100 BR BKN004 OVC020 
     TEMPO 2412/2421 03003MPS 0300 -SNRA FG OVC002
       
URSS 241130Z 31003MPS 9999 SCT016 OVC033CB 08/06 Q1012 R06/290055 R02/////// NOSIG RMK R02/30003MPS MT OBSC QFE758
TAF URSS 241056Z 2412/2512 29005G10MPS 9999 -SHRA SCT015 BKN020CB OVC100 
     TEMPO 2412/2418 3100 -SHRA BR BKN011 BKN020CB OVC100 
     FM241800 06005MPS 9999 SCT030 BKN100 
     BECMG 2507/2509 28005MPS OVC100 
     TEMPO 2507/2509 23005MPS
       
UHMM 241130Z 25001MPS 9999 BKN041 M07/M13 Q1018 R10/85//43 NOSIG RMK QFE749
TAF UHMM 241054Z 2412/2518 02006G12MPS 3100 -SHSN BLSN BKN020CB OVC070 
     TEMPO 2412/2506 10003G08MPS 1000 SHSN VV010
       
UWGG 241130Z 34002MPS 250V360 9999 SCT027 M10/M16 Q1025 R36L/820042 NOSIG RMK QFE762
TAF UWGG 241051Z 2412/2512 27003MPS 6000 -SN BKN012 TXM11/2412Z TNM24/2505Z
       
USRR 241130Z 05002MPS 7000 SCT016 M22/M26 Q1018 R25/35//38 NOSIG RMK QFE758
TAF USRR 241055Z 2412/2512 30003MPS 9999 SCT007 
     TEMPO 2412/2415 3100 BR BKN005 
     TEMPO 2415/2503 1000 BR BKN003
       
UUYY 241130Z 33002MPS 280V020 9999 SCT038 M18/M22 Q1024 R36/450251 NOSIG RMK QFE759/1012
TAF UUYY 241100Z 2412/2512 01003MPS 6000 BKN015 
     TEMPO 2412/2415 3100 -SN BR FU BKN011 
     FM241500 35003MPS 4000 BR FU BKN011 
     TEMPO 2418/2506 0300 FZFG SCT002
       
ULAA 241130Z VRB01MPS 5000 -SHSN BKN010CB M08/M10 Q1032 R08/950548 NOSIG RMK QFE773/1031
TAF AMD ULAA 241115Z 2411/2512 36003MPS 6000 -SN BKN011 
     TEMPO 2411/2416 02004G10MPS 1000 SHSN BKN005 BKN011CB 
     FM241600 03003MPS 9999 BKN012 
     TEMPO 2416/2424 05003G08MPS 3100 -SHSN BKN011CB
       
UEEE 241130Z 01002MPS CAVOK M32/M36 Q1032 R23L/490150 NOSIG RMK QFE765
TAF UEEE 241100Z 2412/2518 VRB01MPS CAVOK 
     FM241800 VRB01MPS 3200 BR NSC 
     TEMPO 2420/2502 0300 FG VV003
       
UNNT 241130Z 20002MPS CAVOK M12/M16 Q1021 R07/810160 R34/810160 NOSIG RMK QFE756/1008
TAF UNNT 241100Z 2412/2512 22003MPS 3100 BR FU BKN011 
     TEMPO 2415/2505 0600 FZFG BKN005 
     BECMG 2505/2506 9999 NSW BKN020
       
UNOO 241130Z 22003MPS CAVOK M15/M20 Q1023 R25/810550 NOSIG RMK QFE759
TAF UNOO 241047Z 2412/2512 24603MPS 3100 BR FU SCT010 
     TEMPO 2413/2415 1000 BR FU SCT005 
     BECMG 2415/2417 1000 BR FU 
     TEMPO 2415/2506 0200 FZFG VV003
       
UWSS 241130Z 01003MPS CAVOK M16/M18 Q1023 R12/820350 NOSIG RMK QFE755
TAF UWSS 241100Z 2412/2421 03003MPS 3100 BR BKN011 
     TEMPO 2415/2421 1600 BR BKN004
       
UUDL 241130Z 04002MPS CAVOK M14/M19 Q1026 R23/820354 NOSIG RMK QFE761
TAF UUDL 241100Z 2412/2512 VRB01MPS 8000 BKN040
       
UWUU 241130Z 19003MPS CAVOK M11/M18 Q1024 R14R/0///60 NOSIG RMK QFE758/1011
TAF UWUU 241102Z 2412/2512 VRB01MPS 9999 OVC040 
     TEMPO 2412/2418 3100 -SN OVC011 
     TEMPO 2418/2506 0300 FZFG VV003 
     TEMPO 2506/2512 3100 -SN BR OVC011
       
UHMA 241100Z 35005MPS CAVOK M26/M29 Q1021 RMK END R01/31003G07MPS QFE762/1016
TAF UHMA 241055Z 2412/2512 36007MPS 9999 NSC
       
URML 241130Z 34008MPS 9999 SCT025 09/03 Q1012 R32/01//70 NOSIG RMK QFE758/1011
TAF URML 241100Z 2412/2421 36005G10MPS 5000 BR BKN011 
     TEMPO 2414/2418 07003G08MPS 2000 DZ BR SCT003 BKN007 
     FM241800 30003G08MPS 3100 BR OVC007 
     TEMPO 2418/2421 1000 DZ BR OVC002
       
URKA 241130Z 06005MPS 2500 BR OVC004 M02/M02 Q1012 R04/010070 TEMPO 0500 FZFG BKN002 RMK QFE755/1007
TAF AMD URKA 241127Z 2412/2512 04005G12MPS 3100 BR BKN004 OVC020 
     TEMPO 2412/2509 0500 -SN FZFG BKN002
       
UUWW 241130Z VRB01MPS 9999 BKN020 M08/M16 Q1025 R01/190040 NOSIG
TAF UUWW 241057Z 2412/2512 VRB01MPS 9999 BKN020 TXM10/2412Z TNM18/2503Z 
     TEMPO 2412/2421 -SN BKN011 
     TEMPO 2421/2509 2100 -SN BR BKN007
       
UWLW 241100Z 23002MPS 8000 NSC M13/M18 Q1025 R20/820550 NOSIG RMK QFE763
TAF UWLW 241045Z 2412/2512 23003MPS 8000 SCT015 
     TEMPO 2412/2414 VRB01MPS 3100 BR BKN011 
     TEMPO 2414/2506 VRB01MPS 0300 FZFG VV001
       
UEEE 241130Z 01002MPS CAVOK M32/M36 Q1032 R23L/490150 NOSIG RMK QFE765
TAF UEEE 241100Z 2412/2518 VRB01MPS CAVOK 
     FM241800 VRB01MPS 3200 BR NSC 
     TEMPO 2420/2502 0300 FG VV003
       
UHPP 241100Z 34006MPS 9999 NSC M11/M18 Q1017 R34L/CLRD70 NOSIG RMK QFE759/1013
TAF UHPP 241058Z 2412/2518 01003G12MPS 9999 NSC 
     FM241800 32003G12MPS 9999 SCT030CB BKN060 
     TEMPO 2423/2506 02005G14MPS